»·PEaware :: N3593Q KVBG-KBFL

N3593Q :: KVBG-KBFL

FLIGHT INFORMATION

Flight Status: Arrived
Operator: Privately registered:
United States
More flights under this callsign
Pilot: Rickie R. (16324)
Aircraft: BEECH AIRCRAFT BEECH AIRLINER
(B190)
More flights by this aircraft type
Origin: KVBG Vandenberg AFB
United States
Destination: KBFL Meadows
United States
More flights between these airports :: More routes between these airports
Route: +VBG2 MQO FLW EHF
File this flight plan on PilotEdge
Remarks:
Altitude:
(Current/Filed)
11,000ft
Speed:
(Current/Filed)
220kts
Departed: 28-Oct-17 03:23 PM
Arrived: 28-Oct-17 04:14 PM
Distance/Time
Traveled:
86nm/0:51
Distance/Time
To Go:
Arrived

Flight Plot

Page will automatically refresh every two minutes.

Flight plan parsing failed; only flown route is shown


Map Options




Map Legend


Flown Route
Filed Route
Departure Airport
Arrival Airport
Navaid (VOR, NDB)
Fix

Horizontal Profiles

Position Reports

Time Latitude Longitude Heading Altitude Ground
Speed
28-Oct-17 14:55 34.731938 -120.570427 48 355ft 0kts
28-Oct-17 14:56 34.731938 -120.570427 48 355ft 0kts
28-Oct-17 14:57 34.731938 -120.570427 48 355ft 0kts
28-Oct-17 14:58 34.731938 -120.570427 48 355ft 0kts
28-Oct-17 14:59 34.731938 -120.570427 48 355ft 0kts
28-Oct-17 15:00 34.731938 -120.570427 48 355ft 0kts
28-Oct-17 15:01 34.731938 -120.570427 48 355ft 0kts
28-Oct-17 15:02 34.731938 -120.570427 48 355ft 0kts
28-Oct-17 15:03 34.731938 -120.570427 48 355ft 0kts
28-Oct-17 15:04 34.731938 -120.570427 48 355ft 0kts
28-Oct-17 15:05 34.731938 -120.570427 48 355ft 0kts
28-Oct-17 15:06 34.731938 -120.570427 48 355ft 0kts
28-Oct-17 15:07 34.731938 -120.570427 48 355ft 0kts
28-Oct-17 15:08 34.731938 -120.570427 48 355ft 0kts
28-Oct-17 15:09 34.731938 -120.570427 48 355ft 0kts
28-Oct-17 15:10 34.731938 -120.570427 48 355ft 0kts
28-Oct-17 15:11 34.731938 -120.570427 48 355ft 0kts
28-Oct-17 15:12 34.731938 -120.570427 48 355ft 0kts
28-Oct-17 15:13 34.731938 -120.570427 48 355ft 0kts
28-Oct-17 15:14 34.731938 -120.570427 48 355ft 0kts
28-Oct-17 15:15 34.731938 -120.570427 48 355ft 0kts
28-Oct-17 15:16 34.731938 -120.570427 48 355ft 0kts
28-Oct-17 15:17 34.731938 -120.570427 48 355ft 0kts
28-Oct-17 15:18 34.731938 -120.570427 48 355ft 0kts
28-Oct-17 15:19 34.731938 -120.570427 48 355ft 0kts
28-Oct-17 15:20 34.731938 -120.570427 48 355ft 0kts
28-Oct-17 15:21 34.731938 -120.570427 48 355ft 0kts
28-Oct-17 15:22 34.731937 -120.570143 135 356ft 4kts
28-Oct-17 15:23 34.729604 -120.569378 132 359ft 11kts
28-Oct-17 15:24 34.726239 -120.565618 146 364ft 19kts
28-Oct-17 15:25 34.723694 -120.565133 183 372ft 0kts
28-Oct-17 15:26 34.723694 -120.565133 183 372ft 0kts
28-Oct-17 15:27 34.722748 -120.565680 242 374ft 11kts
28-Oct-17 15:28 34.738874 -120.586925 316 920ft 158kts
28-Oct-17 15:29 34.776195 -120.625847 319 2369ft 191kts
28-Oct-17 15:30 34.821558 -120.657026 345 3756ft 198kts
28-Oct-17 15:31 34.880236 -120.674776 345 3995ft 235kts
28-Oct-17 15:32 34.945105 -120.694303 345 3979ft 239kts
28-Oct-17 15:33 35.009197 -120.711354 349 3968ft 235kts
28-Oct-17 15:34 35.074120 -120.721434 351 3962ft 235kts
28-Oct-17 15:35 35.138772 -120.732807 347 3962ft 235kts
28-Oct-17 15:36 35.202294 -120.750586 351 3966ft 235kts
28-Oct-17 15:37 35.264810 -120.759882 351 4438ft 224kts
28-Oct-17 15:38 35.307524 -120.733523 87 5801ft 200kts
28-Oct-17 15:39 35.306733 -120.668016 104 7357ft 188kts
28-Oct-17 15:40 35.289894 -120.608813 110 8953ft 181kts
28-Oct-17 15:41 35.275381 -120.552285 106 10478ft 170kts
28-Oct-17 15:42 35.262159 -120.492196 105 11042ft 206kts
28-Oct-17 15:43 35.245906 -120.418656 105 11037ft 235kts
28-Oct-17 15:44 35.226217 -120.340206 108 11039ft 245kts
28-Oct-17 15:45 35.204831 -120.260414 108 11045ft 248kts
28-Oct-17 15:46 35.183274 -120.179925 108 11047ft 250kts
28-Oct-17 15:47 35.161678 -120.099171 108 11043ft 250kts
28-Oct-17 15:48 35.140025 -120.018040 108 11036ft 250kts
28-Oct-17 15:49 35.118452 -119.937016 108 11026ft 251kts
28-Oct-17 15:50 35.102315 -119.855576 70 11022ft 248kts
28-Oct-17 15:51 35.134877 -119.781104 60 11013ft 250kts
28-Oct-17 15:52 35.168747 -119.706777 60 11013ft 250kts
28-Oct-17 15:53 35.203360 -119.633096 59 11019ft 250kts
28-Oct-17 15:54 35.240866 -119.561553 56 11025ft 250kts
28-Oct-17 15:55 35.279011 -119.490448 56 11029ft 250kts
28-Oct-17 15:56 35.317116 -119.419438 56 11029ft 250kts
28-Oct-17 15:57 35.355429 -119.348036 56 11029ft 250kts
28-Oct-17 15:58 35.393701 -119.276675 56 10527ft 250kts
28-Oct-17 15:59 35.429254 -119.210137 56 8888ft 216kts
28-Oct-17 16:00 35.460533 -119.151451 56 7263ft 198kts
28-Oct-17 16:01 35.489827 -119.096631 55 5658ft 189kts
28-Oct-17 16:02 35.516623 -119.046780 55 4876ft 160kts
28-Oct-17 16:03 35.541969 -118.999994 55 5017ft 180kts
28-Oct-17 16:04 35.571037 -118.945858 55 5010ft 197kts
28-Oct-17 16:05 35.601174 -118.889397 56 5008ft 202kts
28-Oct-17 16:06 35.633995 -118.847812 332 5020ft 191kts
28-Oct-17 16:07 35.649328 -118.905899 236 5126ft 188kts
28-Oct-17 16:08 35.601341 -118.905019 165 5754ft 206kts
28-Oct-17 16:09 35.542843 -118.884423 165 5005ft 215kts
28-Oct-17 16:10 35.487870 -118.865011 165 5005ft 200kts
28-Oct-17 16:11 35.435512 -118.846377 165 5007ft 194kts
28-Oct-17 16:12 35.383680 -118.829954 192 4987ft 188kts
28-Oct-17 16:13 35.347247 -118.855414 240 4083ft 130kts
28-Oct-17 16:14 35.340947 -118.896208 284 2949ft 128kts
28-Oct-17 16:15 35.355139 -118.936711 293 2457ft 142kts
28-Oct-17 16:16 35.371352 -118.980202 311 2240ft 127kts
28-Oct-17 16:17 35.395446 -119.010227 313 1454ft 125kts
28-Oct-17 16:18 35.420342 -119.040087 315 709ft 126kts
28-Oct-17 16:19 35.436753 -119.059771 317 488ft 25kts
28-Oct-17 16:20 35.438234 -119.059666 89 493ft 0kts
28-Oct-17 16:21 35.438234 -119.059666 89 493ft 0kts
28-Oct-17 16:22 35.438234 -119.059666 89 493ft 0kts
28-Oct-17 16:23 35.437403 -119.057544 66 496ft 13kts
28-Oct-17 16:24 35.437532 -119.055362 107 505ft 0kts
28-Oct-17 16:25 35.437532 -119.055362 107 506ft 0kts
28-Oct-17 16:26 35.437532 -119.055362 107 506ft 0kts
28-Oct-17 16:27 35.437532 -119.055362 107 506ft 0kts

Navigation Log

Ident Type
Flight plan parsing failed, navigation log unavailable